sensor_id;sensor_type;location;lat;lon;timestamp;temperature;humidity
71128;SHT30;59249;59.736;30.568;2024-03-02T00:01:35;2.54;91.12
71128;SHT30;59249;59.736;30.568;2024-03-02T00:04:08;2.53;91.21
71128;SHT30;59249;59.736;30.568;2024-03-02T00:06:37;2.65;91.34
71128;SHT30;59249;59.736;30.568;2024-03-02T00:09:09;2.57;91.44
71128;SHT30;59249;59.736;30.568;2024-03-02T00:11:39;2.54;91.72
71128;SHT30;59249;59.736;30.568;2024-03-02T00:14:10;2.53;91.58
71128;SHT30;59249;59.736;30.568;2024-03-02T00:16:41;2.57;91.75
71128;SHT30;59249;59.736;30.568;2024-03-02T00:19:13;2.58;91.82
71128;SHT30;59249;59.736;30.568;2024-03-02T00:21:45;2.63;91.94
71128;SHT30;59249;59.736;30.568;2024-03-02T00:24:24;2.58;91.85
71128;SHT30;59249;59.736;30.568;2024-03-02T00:26:59;2.66;91.90
71128;SHT30;59249;59.736;30.568;2024-03-02T00:29:30;2.66;92.00
71128;SHT30;59249;59.736;30.568;2024-03-02T00:32:00;2.53;91.92
71128;SHT30;59249;59.736;30.568;2024-03-02T00:34:34;2.61;92.06
71128;SHT30;59249;59.736;30.568;2024-03-02T00:37:05;2.58;92.06
71128;SHT30;59249;59.736;30.568;2024-03-02T00:39:36;2.57;91.96
71128;SHT30;59249;59.736;30.568;2024-03-02T00:42:11;2.62;91.98
71128;SHT30;59249;59.736;30.568;2024-03-02T00:44:45;2.69;91.94
71128;SHT30;59249;59.736;30.568;2024-03-02T00:47:26;2.62;91.84
71128;SHT30;59249;59.736;30.568;2024-03-02T00:50:12;2.73;91.82
71128;SHT30;59249;59.736;30.568;2024-03-02T00:53:00;2.67;91.41
71128;SHT30;59249;59.736;30.568;2024-03-02T00:55:38;2.70;91.71
71128;SHT30;59249;59.736;30.568;2024-03-02T00:58:31;2.73;91.86
71128;SHT30;59249;59.736;30.568;2024-03-02T01:01:06;2.75;91.65
71128;SHT30;59249;59.736;30.568;2024-03-02T01:03:37;2.73;91.51
71128;SHT30;59249;59.736;30.568;2024-03-02T01:06:16;2.66;91.96
71128;SHT30;59249;59.736;30.568;2024-03-02T01:08:46;2.70;92.00
71128;SHT30;59249;59.736;30.568;2024-03-02T01:11:20;2.68;92.10
71128;SHT30;59249;59.736;30.568;2024-03-02T01:13:51;2.72;91.92
71128;SHT30;59249;59.736;30.568;2024-03-02T01:16:20;2.80;91.59
71128;SHT30;59249;59.736;30.568;2024-03-02T01:18:50;2.75;91.79
71128;SHT30;59249;59.736;30.568;2024-03-02T01:21:21;2.77;91.41
71128;SHT30;59249;59.736;30.568;2024-03-02T01:24:04;2.80;91.41
71128;SHT30;59249;59.736;30.568;2024-03-02T01:26:33;2.81;91.44
71128;SHT30;59249;59.736;30.568;2024-03-02T01:29:02;2.87;91.25
71128;SHT30;59249;59.736;30.568;2024-03-02T01:31:31;2.88;91.34
71128;SHT30;59249;59.736;30.568;2024-03-02T01:34:05;2.93;91.25
71128;SHT30;59249;59.736;30.568;2024-03-02T01:36:37;2.89;91.25
71128;SHT30;59249;59.736;30.568;2024-03-02T01:39:06;2.87;91.31
71128;SHT30;59249;59.736;30.568;2024-03-02T01:41:37;2.89;91.47
71128;SHT30;59249;59.736;30.568;2024-03-02T01:44:06;2.91;91.36
71128;SHT30;59249;59.736;30.568;2024-03-02T01:46:35;2.85;91.25
71128;SHT30;59249;59.736;30.568;2024-03-02T01:49:13;2.84;91.16
71128;SHT30;59249;59.736;30.568;2024-03-02T01:51:47;2.88;91.32
71128;SHT30;59249;59.736;30.568;2024-03-02T01:54:18;2.90;91.30
71128;SHT30;59249;59.736;30.568;2024-03-02T01:56:58;2.91;91.26
71128;SHT30;59249;59.736;30.568;2024-03-02T01:59:27;2.96;91.47
71128;SHT30;59249;59.736;30.568;2024-03-02T02:01:56;2.88;91.39
71128;SHT30;59249;59.736;30.568;2024-03-02T02:04:39;2.95;91.37
71128;SHT30;59249;59.736;30.568;2024-03-02T02:07:20;2.90;91.30
71128;SHT30;59249;59.736;30.568;2024-03-02T02:09:53;2.92;91.31
71128;SHT30;59249;59.736;30.568;2024-03-02T02:12:22;2.97;91.40
71128;SHT30;59249;59.736;30.568;2024-03-02T02:14:52;2.90;91.36
71128;SHT30;59249;59.736;30.568;2024-03-02T02:17:22;2.97;91.36
71128;SHT30;59249;59.736;30.568;2024-03-02T02:19:54;3.04;91.34
71128;SHT30;59249;59.736;30.568;2024-03-02T02:22:39;2.96;91.36
71128;SHT30;59249;59.736;30.568;2024-03-02T02:25:10;2.97;91.28
71128;SHT30;59249;59.736;30.568;2024-03-02T02:27:40;3.00;91.25
71128;SHT30;59249;59.736;30.568;2024-03-02T02:30:29;2.96;91.32
71128;SHT30;59249;59.736;30.568;2024-03-02T02:32:59;2.98;91.40
71128;SHT30;59249;59.736;30.568;2024-03-02T02:35:31;3.05;91.32
71128;SHT30;59249;59.736;30.568;2024-03-02T02:38:21;2.97;91.30
71128;SHT30;59249;59.736;30.568;2024-03-02T02:41:04;3.06;91.28
71128;SHT30;59249;59.736;30.568;2024-03-02T02:43:34;3.04;91.22
71128;SHT30;59249;59.736;30.568;2024-03-02T02:46:12;3.04;91.25
71128;SHT30;59249;59.736;30.568;2024-03-02T02:48:53;2.97;91.44
71128;SHT30;59249;59.736;30.568;2024-03-02T02:51:24;2.98;91.43
71128;SHT30;59249;59.736;30.568;2024-03-02T02:53:57;3.07;91.35
71128;SHT30;59249;59.736;30.568;2024-03-02T02:56:28;2.92;91.43
71128;SHT30;59249;59.736;30.568;2024-03-02T02:58:59;3.04;91.48
71128;SHT30;59249;59.736;30.568;2024-03-02T03:01:29;3.06;91.40
71128;SHT30;59249;59.736;30.568;2024-03-02T03:04:02;3.06;91.36
71128;SHT30;59249;59.736;30.568;2024-03-02T03:06:32;3.11;91.30
71128;SHT30;59249;59.736;30.568;2024-03-02T03:09:16;3.04;91.23
71128;SHT30;59249;59.736;30.568;2024-03-02T03:11:47;3.03;91.42
71128;SHT30;59249;59.736;30.568;2024-03-02T03:14:22;3.09;91.52
71128;SHT30;59249;59.736;30.568;2024-03-02T03:16:51;3.07;91.54
71128;SHT30;59249;59.736;30.568;2024-03-02T03:19:21;3.11;91.36
71128;SHT30;59249;59.736;30.568;2024-03-02T03:21:50;3.10;91.36
71128;SHT30;59249;59.736;30.568;2024-03-02T03:24:20;3.09;91.53
71128;SHT30;59249;59.736;30.568;2024-03-02T03:26:53;3.07;91.30
71128;SHT30;59249;59.736;30.568;2024-03-02T03:29:22;3.02;91.46
71128;SHT30;59249;59.736;30.568;2024-03-02T03:31:51;3.11;91.43
71128;SHT30;59249;59.736;30.568;2024-03-02T03:34:20;3.10;91.41
71128;SHT30;59249;59.736;30.568;2024-03-02T03:36:57;3.01;91.30
71128;SHT30;59249;59.736;30.568;2024-03-02T03:39:36;3.11;91.41
71128;SHT30;59249;59.736;30.568;2024-03-02T03:42:12;3.16;91.38
71128;SHT30;59249;59.736;30.568;2024-03-02T03:44:41;3.06;91.41
71128;SHT30;59249;59.736;30.568;2024-03-02T03:47:11;3.15;91.31
71128;SHT30;59249;59.736;30.568;2024-03-02T03:49:57;3.08;91.47
71128;SHT30;59249;59.736;30.568;2024-03-02T03:52:29;3.07;91.55
71128;SHT30;59249;59.736;30.568;2024-03-02T03:55:04;3.13;91.52
71128;SHT30;59249;59.736;30.568;2024-03-02T03:57:44;3.20;91.41
71128;SHT30;59249;59.736;30.568;2024-03-02T04:00:15;3.12;91.57
71128;SHT30;59249;59.736;30.568;2024-03-02T04:02:46;3.12;91.36
71128;SHT30;59249;59.736;30.568;2024-03-02T04:05:18;3.20;91.35
71128;SHT30;59249;59.736;30.568;2024-03-02T04:07:50;3.13;91.41
71128;SHT30;59249;59.736;30.568;2024-03-02T04:10:26;3.21;91.53
71128;SHT30;59249;59.736;30.568;2024-03-02T04:12:58;3.11;91.35
71128;SHT30;59249;59.736;30.568;2024-03-02T04:15:42;3.13;91.32
71128;SHT30;59249;59.736;30.568;2024-03-02T04:18:11;3.24;91.32
71128;SHT30;59249;59.736;30.568;2024-03-02T04:20:40;3.13;91.41
71128;SHT30;59249;59.736;30.568;2024-03-02T04:23:13;3.12;91.40
71128;SHT30;59249;59.736;30.568;2024-03-02T04:25:44;3.27;91.54
71128;SHT30;59249;59.736;30.568;2024-03-02T04:28:17;3.22;91.42
71128;SHT30;59249;59.736;30.568;2024-03-02T04:30:53;3.15;91.45
71128;SHT30;59249;59.736;30.568;2024-03-02T04:33:33;3.26;91.40
71128;SHT30;59249;59.736;30.568;2024-03-02T04:36:05;3.29;91.41
71128;SHT30;59249;59.736;30.568;2024-03-02T04:38:40;3.21;91.36
71128;SHT30;59249;59.736;30.568;2024-03-02T04:41:16;3.30;91.33
71128;SHT30;59249;59.736;30.568;2024-03-02T04:43:57;3.39;91.33
71128;SHT30;59249;59.736;30.568;2024-03-02T04:46:35;3.34;91.14
71128;SHT30;59249;59.736;30.568;2024-03-02T04:49:04;3.38;91.10
71128;SHT30;59249;59.736;30.568;2024-03-02T04:51:33;3.37;91.09
71128;SHT30;59249;59.736;30.568;2024-03-02T04:54:03;3.31;91.03
71128;SHT30;59249;59.736;30.568;2024-03-02T04:56:35;3.30;91.12
71128;SHT30;59249;59.736;30.568;2024-03-02T04:59:27;3.34;91.07
71128;SHT30;59249;59.736;30.568;2024-03-02T05:01:56;3.39;91.16
71128;SHT30;59249;59.736;30.568;2024-03-02T05:04:29;3.38;91.07
71128;SHT30;59249;59.736;30.568;2024-03-02T05:07:02;3.34;91.07
71128;SHT30;59249;59.736;30.568;2024-03-02T05:09:31;3.37;90.96
71128;SHT30;59249;59.736;30.568;2024-03-02T05:12:07;3.46;90.74
71128;SHT30;59249;59.736;30.568;2024-03-02T05:15:11;3.40;90.88
71128;SHT30;59249;59.736;30.568;2024-03-02T05:17:58;3.46;90.82
71128;SHT30;59249;59.736;30.568;2024-03-02T05:20:40;3.39;90.82
71128;SHT30;59249;59.736;30.568;2024-03-02T05:23:12;3.48;90.80
71128;SHT30;59249;59.736;30.568;2024-03-02T05:25:43;3.52;90.64
71128;SHT30;59249;59.736;30.568;2024-03-02T05:28:16;3.46;90.71
71128;SHT30;59249;59.736;30.568;2024-03-02T05:30:55;3.52;90.74
71128;SHT30;59249;59.736;30.568;2024-03-02T05:33:26;3.50;90.74
71128;SHT30;59249;59.736;30.568;2024-03-02T05:35:58;3.59;90.70
71128;SHT30;59249;59.736;30.568;2024-03-02T05:38:29;3.53;90.61
71128;SHT30;59249;59.736;30.568;2024-03-02T05:41:03;3.56;90.51
71128;SHT30;59249;59.736;30.568;2024-03-02T05:43:36;3.52;90.68
71128;SHT30;59249;59.736;30.568;2024-03-02T05:46:17;3.53;90.55
71128;SHT30;59249;59.736;30.568;2024-03-02T05:48:47;3.51;90.59
71128;SHT30;59249;59.736;30.568;2024-03-02T05:51:31;3.49;90.59
71128;SHT30;59249;59.736;30.568;2024-03-02T05:54:05;3.55;90.34
71128;SHT30;59249;59.736;30.568;2024-03-02T05:56:36;3.63;90.33
71128;SHT30;59249;59.736;30.568;2024-03-02T05:59:13;3.58;90.36
71128;SHT30;59249;59.736;30.568;2024-03-02T06:01:48;3.48;90.49
71128;SHT30;59249;59.736;30.568;2024-03-02T06:04:25;3.58;90.55
71128;SHT30;59249;59.736;30.568;2024-03-02T06:06:55;3.61;90.57
71128;SHT30;59249;59.736;30.568;2024-03-02T06:09:26;3.60;90.46
71128;SHT30;59249;59.736;30.568;2024-03-02T06:11:59;3.64;90.34
71128;SHT30;59249;59.736;30.568;2024-03-02T06:14:30;3.70;90.23
71128;SHT30;59249;59.736;30.568;2024-03-02T06:17:00;3.69;90.09
71128;SHT30;59249;59.736;30.568;2024-03-02T06:19:30;3.69;90.12
71128;SHT30;59249;59.736;30.568;2024-03-02T06:22:00;3.63;90.17
71128;SHT30;59249;59.736;30.568;2024-03-02T06:24:33;3.64;90.34
71128;SHT30;59249;59.736;30.568;2024-03-02T06:27:03;3.77;90.27
71128;SHT30;59249;59.736;30.568;2024-03-02T06:29:44;3.69;90.05
71128;SHT30;59249;59.736;30.568;2024-03-02T06:32:27;3.67;90.13
71128;SHT30;59249;59.736;30.568;2024-03-02T06:34:59;3.65;90.16
71128;SHT30;59249;59.736;30.568;2024-03-02T06:37:40;3.63;90.23
71128;SHT30;59249;59.736;30.568;2024-03-02T06:40:14;3.63;90.01
71128;SHT30;59249;59.736;30.568;2024-03-02T06:42:49;3.63;90.05
71128;SHT30;59249;59.736;30.568;2024-03-02T06:45:29;3.63;90.20
71128;SHT30;59249;59.736;30.568;2024-03-02T06:47:59;3.66;90.32
71128;SHT30;59249;59.736;30.568;2024-03-02T06:50:35;3.67;90.25
71128;SHT30;59249;59.736;30.568;2024-03-02T06:53:04;3.66;90.35
71128;SHT30;59249;59.736;30.568;2024-03-02T06:55:34;3.76;90.29
71128;SHT30;59249;59.736;30.568;2024-03-02T06:58:05;3.77;90.22
71128;SHT30;59249;59.736;30.568;2024-03-02T07:00:46;3.79;90.29
71128;SHT30;59249;59.736;30.568;2024-03-02T07:03:15;3.81;90.49
71128;SHT30;59249;59.736;30.568;2024-03-02T07:05:45;3.79;90.37
71128;SHT30;59249;59.736;30.568;2024-03-02T07:08:19;3.79;90.46
71128;SHT30;59249;59.736;30.568;2024-03-02T07:10:48;3.85;90.44
71128;SHT30;59249;59.736;30.568;2024-03-02T07:13:21;3.91;90.46
71128;SHT30;59249;59.736;30.568;2024-03-02T07:15:56;3.93;90.34
71128;SHT30;59249;59.736;30.568;2024-03-02T07:18:55;4.02;90.11
71128;SHT30;59249;59.736;30.568;2024-03-02T07:21:27;3.96;89.84
71128;SHT30;59249;59.736;30.568;2024-03-02T07:23:58;3.98;89.89
71128;SHT30;59249;59.736;30.568;2024-03-02T07:26:29;4.06;89.58
71128;SHT30;59249;59.736;30.568;2024-03-02T07:29:01;4.14;89.50
71128;SHT30;59249;59.736;30.568;2024-03-02T07:31:32;3.99;89.39
71128;SHT30;59249;59.736;30.568;2024-03-02T07:34:03;4.01;89.60
71128;SHT30;59249;59.736;30.568;2024-03-02T07:36:34;4.09;89.31
71128;SHT30;59249;59.736;30.568;2024-03-02T07:39:04;4.07;89.16
71128;SHT30;59249;59.736;30.568;2024-03-02T07:41:40;4.02;89.20
71128;SHT30;59249;59.736;30.568;2024-03-02T07:44:13;4.08;89.37
71128;SHT30;59249;59.736;30.568;2024-03-02T07:46:45;4.05;89.54
71128;SHT30;59249;59.736;30.568;2024-03-02T07:49:15;4.10;89.22
71128;SHT30;59249;59.736;30.568;2024-03-02T07:51:45;4.05;89.58
71128;SHT30;59249;59.736;30.568;2024-03-02T07:54:15;4.17;89.16
71128;SHT30;59249;59.736;30.568;2024-03-02T07:56:45;4.10;89.22
71128;SHT30;59249;59.736;30.568;2024-03-02T07:59:16;4.08;89.77
71128;SHT30;59249;59.736;30.568;2024-03-02T08:01:49;4.07;89.68
71128;SHT30;59249;59.736;30.568;2024-03-02T08:04:23;4.01;89.71
71128;SHT30;59249;59.736;30.568;2024-03-02T08:06:55;4.07;89.91
71128;SHT30;59249;59.736;30.568;2024-03-02T08:09:25;4.02;89.45
71128;SHT30;59249;59.736;30.568;2024-03-02T08:11:55;4.11;89.37
71128;SHT30;59249;59.736;30.568;2024-03-02T08:14:26;4.21;89.51
71128;SHT30;59249;59.736;30.568;2024-03-02T08:16:56;4.25;89.17
71128;SHT30;59249;59.736;30.568;2024-03-02T08:19:27;4.25;89.21
71128;SHT30;59249;59.736;30.568;2024-03-02T08:21:56;4.27;88.92
71128;SHT30;59249;59.736;30.568;2024-03-02T08:24:28;4.30;89.07
71128;SHT30;59249;59.736;30.568;2024-03-02T08:27:00;4.40;89.14
71128;SHT30;59249;59.736;30.568;2024-03-02T08:29:31;4.59;89.07
71128;SHT30;59249;59.736;30.568;2024-03-02T08:32:07;4.45;88.45
71128;SHT30;59249;59.736;30.568;2024-03-02T08:34:42;4.53;88.43
71128;SHT30;59249;59.736;30.568;2024-03-02T08:37:17;4.63;88.32
71128;SHT30;59249;59.736;30.568;2024-03-02T08:40:12;4.69;88.07
71128;SHT30;59249;59.736;30.568;2024-03-02T08:43:07;4.75;87.85
71128;SHT30;59249;59.736;30.568;2024-03-02T08:45:41;4.70;87.60
71128;SHT30;59249;59.736;30.568;2024-03-02T08:48:16;4.82;87.48
71128;SHT30;59249;59.736;30.568;2024-03-02T08:50:58;4.79;87.50
71128;SHT30;59249;59.736;30.568;2024-03-02T08:53:45;4.92;87.39
71128;SHT30;59249;59.736;30.568;2024-03-02T08:56:23;4.94;87.09
71128;SHT30;59249;59.736;30.568;2024-03-02T08:59:00;5.04;87.07
71128;SHT30;59249;59.736;30.568;2024-03-02T09:01:31;5.01;86.83
71128;SHT30;59249;59.736;30.568;2024-03-02T09:04:21;5.00;86.84
71128;SHT30;59249;59.736;30.568;2024-03-02T09:06:54;5.03;86.63
71128;SHT30;59249;59.736;30.568;2024-03-02T09:09:24;5.03;86.42
71128;SHT30;59249;59.736;30.568;2024-03-02T09:11:55;5.15;86.36
71128;SHT30;59249;59.736;30.568;2024-03-02T09:14:35;5.14;86.36
71128;SHT30;59249;59.736;30.568;2024-03-02T09:17:14;5.24;86.02
71128;SHT30;59249;59.736;30.568;2024-03-02T09:19:45;5.30;86.01
71128;SHT30;59249;59.736;30.568;2024-03-02T09:22:16;5.19;85.69
71128;SHT30;59249;59.736;30.568;2024-03-02T09:24:56;5.35;85.66
71128;SHT30;59249;59.736;30.568;2024-03-02T09:27:57;5.36;85.21
71128;SHT30;59249;59.736;30.568;2024-03-02T09:30:34;5.38;85.23
71128;SHT30;59249;59.736;30.568;2024-03-02T09:33:05;5.39;84.61
71128;SHT30;59249;59.736;30.568;2024-03-02T09:35:45;5.42;84.41
71128;SHT30;59249;59.736;30.568;2024-03-02T09:38:22;5.61;84.65
71128;SHT30;59249;59.736;30.568;2024-03-02T09:40:56;5.54;83.93
71128;SHT30;59249;59.736;30.568;2024-03-02T09:43:26;5.56;83.83
71128;SHT30;59249;59.736;30.568;2024-03-02T09:45:57;5.65;83.70
71128;SHT30;59249;59.736;30.568;2024-03-02T09:48:28;5.67;83.97
71128;SHT30;59249;59.736;30.568;2024-03-02T09:51:06;5.77;83.75
71128;SHT30;59249;59.736;30.568;2024-03-02T09:53:38;5.65;83.07
71128;SHT30;59249;59.736;30.568;2024-03-02T09:56:07;5.70;83.46
71128;SHT30;59249;59.736;30.568;2024-03-02T09:58:36;5.80;83.31
71128;SHT30;59249;59.736;30.568;2024-03-02T10:01:15;5.72;82.91
71128;SHT30;59249;59.736;30.568;2024-03-02T10:03:59;5.77;83.23
71128;SHT30;59249;59.736;30.568;2024-03-02T10:06:39;5.80;83.25
71128;SHT30;59249;59.736;30.568;2024-03-02T10:09:13;5.81;83.39
71128;SHT30;59249;59.736;30.568;2024-03-02T10:12:04;5.75;83.04
71128;SHT30;59249;59.736;30.568;2024-03-02T10:14:34;5.75;82.87
71128;SHT30;59249;59.736;30.568;2024-03-02T10:17:06;5.83;83.05
71128;SHT30;59249;59.736;30.568;2024-03-02T10:19:38;5.87;82.88
71128;SHT30;59249;59.736;30.568;2024-03-02T10:24:43;5.77;82.67
71128;SHT30;59249;59.736;30.568;2024-03-02T10:27:25;5.89;82.57
71128;SHT30;59249;59.736;30.568;2024-03-02T10:29:57;5.79;82.58
71128;SHT30;59249;59.736;30.568;2024-03-02T10:32:38;5.90;82.44
71128;SHT30;59249;59.736;30.568;2024-03-02T10:35:09;5.90;82.34
71128;SHT30;59249;59.736;30.568;2024-03-02T10:37:43;5.95;82.22
71128;SHT30;59249;59.736;30.568;2024-03-02T10:40:14;5.96;81.98
71128;SHT30;59249;59.736;30.568;2024-03-02T10:42:45;5.89;81.93
71128;SHT30;59249;59.736;30.568;2024-03-02T10:45:16;5.91;81.77
71128;SHT30;59249;59.736;30.568;2024-03-02T10:47:50;5.95;81.99
71128;SHT30;59249;59.736;30.568;2024-03-02T10:50:19;6.05;81.73
71128;SHT30;59249;59.736;30.568;2024-03-02T10:52:50;6.05;81.77
71128;SHT30;59249;59.736;30.568;2024-03-02T10:55:20;6.11;81.74
71128;SHT30;59249;59.736;30.568;2024-03-02T10:57:54;6.12;81.38
71128;SHT30;59249;59.736;30.568;2024-03-02T11:00:26;6.14;81.16
71128;SHT30;59249;59.736;30.568;2024-03-02T11:03:07;6.19;81.36
71128;SHT30;59249;59.736;30.568;2024-03-02T11:05:44;6.24;81.40
71128;SHT30;59249;59.736;30.568;2024-03-02T11:08:19;6.28;81.31
71128;SHT30;59249;59.736;30.568;2024-03-02T11:11:04;6.33;80.88
71128;SHT30;59249;59.736;30.568;2024-03-02T11:13:38;6.35;80.87
71128;SHT30;59249;59.736;30.568;2024-03-02T11:16:27;6.43;80.99
71128;SHT30;59249;59.736;30.568;2024-03-02T11:19:01;6.43;80.85
71128;SHT30;59249;59.736;30.568;2024-03-02T11:21:32;6.52;80.64
71128;SHT30;59249;59.736;30.568;2024-03-02T11:24:34;6.51;80.53
71128;SHT30;59249;59.736;30.568;2024-03-02T11:27:07;6.58;80.10
71128;SHT30;59249;59.736;30.568;2024-03-02T11:29:48;6.54;79.50
71128;SHT30;59249;59.736;30.568;2024-03-02T11:32:21;6.56;80.12
71128;SHT30;59249;59.736;30.568;2024-03-02T11:34:52;6.56;79.67
71128;SHT30;59249;59.736;30.568;2024-03-02T11:37:26;6.58;79.59
71128;SHT30;59249;59.736;30.568;2024-03-02T11:40:05;6.60;79.74
71128;SHT30;59249;59.736;30.568;2024-03-02T11:42:38;6.62;79.86
71128;SHT30;59249;59.736;30.568;2024-03-02T11:45:10;6.56;79.50
71128;SHT30;59249;59.736;30.568;2024-03-02T11:47:41;6.69;79.41
71128;SHT30;59249;59.736;30.568;2024-03-02T11:50:29;6.63;79.33
71128;SHT30;59249;59.736;30.568;2024-03-02T11:53:09;6.72;79.43
71128;SHT30;59249;59.736;30.568;2024-03-02T11:55:45;6.66;79.11
71128;SHT30;59249;59.736;30.568;2024-03-02T11:58:16;6.64;78.82
71128;SHT30;59249;59.736;30.568;2024-03-02T12:00:55;6.75;78.80
71128;SHT30;59249;59.736;30.568;2024-03-02T12:03:25;6.70;78.93
71128;SHT30;59249;59.736;30.568;2024-03-02T12:05:55;6.78;78.65
71128;SHT30;59249;59.736;30.568;2024-03-02T12:08:34;6.82;78.52
71128;SHT30;59249;59.736;30.568;2024-03-02T12:11:05;6.95;78.05
71128;SHT30;59249;59.736;30.568;2024-03-02T12:13:36;6.96;78.22
71128;SHT30;59249;59.736;30.568;2024-03-02T12:16:25;6.86;77.75
71128;SHT30;59249;59.736;30.568;2024-03-02T12:18:57;6.96;77.77
71128;SHT30;59249;59.736;30.568;2024-03-02T12:21:43;6.98;77.91
71128;SHT30;59249;59.736;30.568;2024-03-02T12:24:16;7.08;77.70
71128;SHT30;59249;59.736;30.568;2024-03-02T12:26:48;6.92;77.73
71128;SHT30;59249;59.736;30.568;2024-03-02T12:29:19;7.00;77.50
71128;SHT30;59249;59.736;30.568;2024-03-02T12:31:58;7.00;77.37
71128;SHT30;59249;59.736;30.568;2024-03-02T12:34:31;7.04;77.69
71128;SHT30;59249;59.736;30.568;2024-03-02T12:37:01;6.99;77.73
71128;SHT30;59249;59.736;30.568;2024-03-02T12:39:31;7.03;77.62
71128;SHT30;59249;59.736;30.568;2024-03-02T12:42:03;7.02;77.64
71128;SHT30;59249;59.736;30.568;2024-03-02T12:47:06;7.02;77.78
71128;SHT30;59249;59.736;30.568;2024-03-02T12:49:36;7.05;77.46
71128;SHT30;59249;59.736;30.568;2024-03-02T12:52:08;7.00;77.41
71128;SHT30;59249;59.736;30.568;2024-03-02T12:54:53;6.91;77.30
71128;SHT30;59249;59.736;30.568;2024-03-02T12:57:37;6.96;77.45
71128;SHT30;59249;59.736;30.568;2024-03-02T13:00:19;6.91;77.61
71128;SHT30;59249;59.736;30.568;2024-03-02T13:02:58;6.74;77.85
71128;SHT30;59249;59.736;30.568;2024-03-02T13:05:31;6.80;77.55
71128;SHT30;59249;59.736;30.568;2024-03-02T13:08:04;6.82;77.67
71128;SHT30;59249;59.736;30.568;2024-03-02T13:10:35;6.77;77.95
71128;SHT30;59249;59.736;30.568;2024-03-02T13:16:02;6.89;77.70
71128;SHT30;59249;59.736;30.568;2024-03-02T13:18:44;6.87;77.46
71128;SHT30;59249;59.736;30.568;2024-03-02T13:21:33;6.88;77.50
71128;SHT30;59249;59.736;30.568;2024-03-02T13:24:16;6.97;77.12
71128;SHT30;59249;59.736;30.568;2024-03-02T13:26:57;6.83;77.37
71128;SHT30;59249;59.736;30.568;2024-03-02T13:29:30;6.90;77.34
71128;SHT30;59249;59.736;30.568;2024-03-02T13:32:07;6.79;77.22
71128;SHT30;59249;59.736;30.568;2024-03-02T13:34:38;6.82;77.56
71128;SHT30;59249;59.736;30.568;2024-03-02T13:37:15;6.76;77.31
71128;SHT30;59249;59.736;30.568;2024-03-02T13:39:58;6.80;77.41
71128;SHT30;59249;59.736;30.568;2024-03-02T13:42:47;6.80;77.45
71128;SHT30;59249;59.736;30.568;2024-03-02T13:45:21;6.75;77.61
71128;SHT30;59249;59.736;30.568;2024-03-02T13:47:52;6.81;77.71
71128;SHT30;59249;59.736;30.568;2024-03-02T13:50:24;6.75;77.77
71128;SHT30;59249;59.736;30.568;2024-03-02T13:52:53;6.81;77.90
71128;SHT30;59249;59.736;30.568;2024-03-02T13:55:31;6.81;78.02
71128;SHT30;59249;59.736;30.568;2024-03-02T13:58:09;6.84;77.95
71128;SHT30;59249;59.736;30.568;2024-03-02T14:00:47;6.72;77.73
71128;SHT30;59249;59.736;30.568;2024-03-02T14:03:18;6.79;77.90
71128;SHT30;59249;59.736;30.568;2024-03-02T14:05:53;6.77;77.97
71128;SHT30;59249;59.736;30.568;2024-03-02T14:08:27;6.70;77.85
71128;SHT30;59249;59.736;30.568;2024-03-02T14:11:00;6.60;77.67
71128;SHT30;59249;59.736;30.568;2024-03-02T14:13:39;6.61;77.92
71128;SHT30;59249;59.736;30.568;2024-03-02T14:16:13;6.67;78.04
71128;SHT30;59249;59.736;30.568;2024-03-02T14:18:42;6.67;77.76
71128;SHT30;59249;59.736;30.568;2024-03-02T14:21:11;6.51;77.57
71128;SHT30;59249;59.736;30.568;2024-03-02T14:23:44;6.62;77.77
71128;SHT30;59249;59.736;30.568;2024-03-02T14:26:13;6.50;77.80
71128;SHT30;59249;59.736;30.568;2024-03-02T14:28:42;6.52;77.89
71128;SHT30;59249;59.736;30.568;2024-03-02T14:31:21;6.40;78.07
71128;SHT30;59249;59.736;30.568;2024-03-02T14:33:52;6.41;78.03
71128;SHT30;59249;59.736;30.568;2024-03-02T14:36:23;6.29;78.15
71128;SHT30;59249;59.736;30.568;2024-03-02T14:38:54;6.30;78.35
71128;SHT30;59249;59.736;30.568;2024-03-02T14:41:31;6.33;78.44
71128;SHT30;59249;59.736;30.568;2024-03-02T14:44:00;6.19;78.48
71128;SHT30;59249;59.736;30.568;2024-03-02T14:46:34;6.16;78.61
71128;SHT30;59249;59.736;30.568;2024-03-02T14:49:03;6.21;78.74
71128;SHT30;59249;59.736;30.568;2024-03-02T14:51:33;6.14;78.49
71128;SHT30;59249;59.736;30.568;2024-03-02T14:54:04;6.06;78.32
71128;SHT30;59249;59.736;30.568;2024-03-02T14:56:35;5.98;78.41
71128;SHT30;59249;59.736;30.568;2024-03-02T14:59:07;5.94;78.57
71128;SHT30;59249;59.736;30.568;2024-03-02T15:01:44;5.95;78.59
71128;SHT30;59249;59.736;30.568;2024-03-02T15:04:28;5.95;78.80
71128;SHT30;59249;59.736;30.568;2024-03-02T15:07:10;5.90;78.87
71128;SHT30;59249;59.736;30.568;2024-03-02T15:09:39;5.79;79.04
71128;SHT30;59249;59.736;30.568;2024-03-02T15:12:09;5.81;79.15
71128;SHT30;59249;59.736;30.568;2024-03-02T15:14:53;5.70;79.15
71128;SHT30;59249;59.736;30.568;2024-03-02T15:17:31;5.67;79.23
71128;SHT30;59249;59.736;30.568;2024-03-02T15:20:01;5.63;79.16
71128;SHT30;59249;59.736;30.568;2024-03-02T15:22:32;5.67;79.07
71128;SHT30;59249;59.736;30.568;2024-03-02T15:25:02;5.56;78.87
71128;SHT30;59249;59.736;30.568;2024-03-02T15:27:32;5.61;79.02
71128;SHT30;59249;59.736;30.568;2024-03-02T15:30:06;5.58;78.88
71128;SHT30;59249;59.736;30.568;2024-03-02T15:32:39;5.55;78.91
71128;SHT30;59249;59.736;30.568;2024-03-02T15:35:15;5.50;78.87
71128;SHT30;59249;59.736;30.568;2024-03-02T15:37:48;5.48;79.21
71128;SHT30;59249;59.736;30.568;2024-03-02T15:41:11;5.44;79.38
71128;SHT30;59249;59.736;30.568;2024-03-02T15:43:48;5.40;79.04
71128;SHT30;59249;59.736;30.568;2024-03-02T15:46:34;5.44;79.38
71128;SHT30;59249;59.736;30.568;2024-03-02T15:49:05;5.45;79.57
71128;SHT30;59249;59.736;30.568;2024-03-02T15:51:41;5.37;79.66
71128;SHT30;59249;59.736;30.568;2024-03-02T15:54:12;5.38;79.85
71128;SHT30;59249;59.736;30.568;2024-03-02T15:56:43;5.32;79.82
71128;SHT30;59249;59.736;30.568;2024-03-02T15:59:18;5.27;79.73
71128;SHT30;59249;59.736;30.568;2024-03-02T16:01:59;5.29;79.70
71128;SHT30;59249;59.736;30.568;2024-03-02T16:04:37;5.25;79.75
71128;SHT30;59249;59.736;30.568;2024-03-02T16:07:21;5.12;79.82
71128;SHT30;59249;59.736;30.568;2024-03-02T16:09:52;5.26;79.80
71128;SHT30;59249;59.736;30.568;2024-03-02T16:12:30;5.21;79.80
71128;SHT30;59249;59.736;30.568;2024-03-02T16:15:01;5.28;79.90
71128;SHT30;59249;59.736;30.568;2024-03-02T16:17:34;5.21;80.11
71128;SHT30;59249;59.736;30.568;2024-03-02T16:20:09;5.16;79.96
71128;SHT30;59249;59.736;30.568;2024-03-02T16:22:45;5.12;79.81
71128;SHT30;59249;59.736;30.568;2024-03-02T16:25:19;5.19;79.90